Ekin-s — TCMW3 — position and weather

sailwx.info

Track history (hours):
 
Tides and Currents Weather Stations Pressure Air Temp Water Temp Dewpoint Dewpoint Depression Visibility Wind Speed Wind Dir Waves Ship Positions

Ekin-s

Last reported at 2014-Jul-23 08:31 UTC. Time now 2014-Jul-24 06:27 UTC.
Position N 59°18' E 004°19'.

Length 109 m; draft 5.8 m.

Type: Ship. MMSI: 271042836.

Date/timePositionNaut miles runAvg speedWind from/ knotsBaromVisibWave heightAir tempDewpointWater temp
2014-Jul-23 08:31N 59°18' E 004°19'1010.5
2014-Jul-23 07:32N 59°09' E 004°29'1312.8
2014-Jul-23 06:33N 59°06' E 004°53'1212.5
2014-Jul-23 05:33N 59°05' E 005°17'1211.9
2014-Jul-23 04:32N 59°17' E 005°20'3 0.2
2014-Jul-22 11:28N 59°20' E 005°18'9 9.5
2014-Jul-22 10:33N 59°12' E 005°21'1110.7
2014-Jul-22 09:33N 59°01' E 005°20'1111.3
2014-Jul-22 08:33N 58°50' E 005°14'1211.6
2014-Jul-22 07:33N 58°38' E 005°14'1312.5
2014-Jul-22 06:31N 58°26' E 005°20'1212.8
2014-Jul-22 05:33N 58°16' E 005°34'1312.9
2014-Jul-22 04:33N 58°07' E 005°52'14011.6
2014-Jul-21 16:33N 57°54' E 010°14'1211.9
2014-Jul-21 15:33N 57°55' E 010°36'1212.3
2014-Jul-21 14:33N 57°52' E 010°59'1111.1
2014-Jul-21 13:33N 57°44' E 011°11'1111.1
2014-Jul-21 12:33N 57°35' E 011°23'1211.6
2014-Jul-21 11:33N 57°24' E 011°31'1212.0
2014-Jul-21 10:33N 57°12' E 011°38'1312.1
2014-Jul-21 09:29N 57°00' E 011°46'1212.3
2014-Jul-21 08:33N 56°49' E 011°54'1211.5
2014-Jul-21 07:32N 56°38' E 011°55'1211.6
2014-Jul-21 06:31N 56°29' E 011°40'1311.6
2014-Jul-21 05:25N 56°19' E 011°27'1011.6
2014-Jul-21 04:32N 56°10' E 011°17'1212.1
2014-Jul-21 03:31N 56°00' E 011°04'1313.2
2014-Jul-21 02:33N 55°50' E 010°50'1413.4
2014-Jul-21 01:32N 55°36' E 010°48'1513.9
2014-Jul-21 00:27N 55°23' E 011°01'1213.2
2014-Jul-20 23:32N 55°11' E 011°05'1313.1
2014-Jul-20 22:31N 54°58' E 010°60'1212.2
2014-Jul-20 21:33N 54°47' E 010°52'1111.2
2014-Jul-20 20:33N 54°39' E 011°05'1313.4
2014-Jul-20 19:33N 54°32' E 011°25'1312.9
2014-Jul-20 18:33N 54°27' E 011°45'1312.8
2014-Jul-20 17:33N 54°26' E 012°07'1212.0
2014-Jul-20 16:33N 54°37' E 012°16'1212.3
2014-Jul-20 15:33N 54°44' E 012°34'1111.4
2014-Jul-20 14:33N 54°48' E 012°52'1212.3
2014-Jul-20 13:33N 54°48' E 013°14'1312.6
2014-Jul-20 12:33N 54°47' E 013°35'1212.3
2014-Jul-20 11:33N 54°43' E 013°55'1212.5
2014-Jul-20 10:33N 54°39' E 014°16'1212.1
2014-Jul-20 09:33N 54°39' E 014°37'1212.3
2014-Jul-20 08:33N 54°41' E 014°58'1212.3
2014-Jul-20 07:33N 54°42' E 015°19'1212.2
2014-Jul-20 06:33N 54°44' E 015°40'1212.2
2014-Jul-20 05:33N 54°46' E 016°01'1212.2
2014-Jul-20 04:33N 54°48' E 016°22'1212.1
2014-Jul-20 03:33N 54°50' E 016°42'1212.4
2014-Jul-20 02:33N 54°53' E 017°03'1212.4
2014-Jul-20 01:33N 54°55' E 017°24'1212.3
2014-Jul-20 00:33N 54°57' E 017°45'1212.3
2014-Jul-19 23:33N 54°58' E 018°07'1212.5
2014-Jul-19 22:33N 54°59' E 018°28'1212.5
2014-Jul-19 21:33N 54°57' E 018°50'1212.4
2014-Jul-19 20:33N 54°52' E 019°09'1212.2
2014-Jul-19 19:33N 54°47' E 019°29'1212.1
2014-Jul-19 18:33N 54°41' E 019°47'8 7.9
2014-Jul-19 17:33N 54°38' E 020°00'7 7.0
2014-Jul-19 16:33N 54°41' E 020°11'1 0.4
2014-Jul-19 15:07N 54°41' E 020°12'0 0.0
2014-Jul-19 14:28N 54°41' E 020°12'0 0.0
2014-Jul-19 13:28N 54°41' E 020°12'0 0.0
2014-Jul-19 10:16N 54°41' E 020°12'0 0.0
2014-Jul-19 09:31N 54°41' E 020°12'0 0.0
2014-Jul-19 08:28N 54°41' E 020°12'0 0.0
2014-Jul-19 07:31N 54°41' E 020°12'0 0.0
2014-Jul-18 14:25N 54°41' E 020°12'4 4.7
2014-Jul-18 13:32N 54°39' E 020°06'8 7.5
2014-Jul-18 12:31N 54°38' E 019°53'3 3.2
2014-Jul-18 11:31N 54°39' E 019°47'0 0.1
2014-Jul-18 10:31N 54°39' E 019°47'0 0.0
2014-Jul-18 09:31N 54°39' E 019°47'0 0.0
2014-Jul-18 08:31N 54°39' E 019°47'0 0.0
2014-Jul-18 07:25N 54°39' E 019°47'0 0.0
2014-Jul-18 06:31N 54°39' E 019°47'0 0.0
2014-Jul-18 03:32N 54°39' E 019°47'7 7.1
2014-Jul-18 02:33N 54°43' E 019°38'1212.4
2014-Jul-18 01:33N 54°52' E 019°22'1212.0
2014-Jul-18 00:33N 55°00' E 019°08'1211.7
2014-Jul-17 23:33N 55°09' E 018°54'1211.8
2014-Jul-17 22:33N 55°17' E 018°40'5512.4
2014-Jul-17 18:07N 56°08' E 018°03'1112.8
2014-Jul-17 17:17N 56°18' E 017°57'1212.7
2014-Jul-17 16:23N 56°30' E 017°51'1012.4
2014-Jul-17 15:33N 56°39' E 017°45'1512.1
2014-Jul-17 14:17N 56°54' E 017°37'912.1
2014-Jul-17 13:31N 57°03' E 017°34'1111.6
2014-Jul-17 12:33N 57°14' E 017°29'1312.9
2014-Jul-17 11:33N 57°26' E 017°22'1111.2
2014-Jul-17 10:33N 57°30' E 017°02'1313.1
2014-Jul-17 09:33N 57°19' E 016°50'1312.6
2014-Jul-17 08:33N 57°09' E 016°35'4 3.7
2014-Jul-17 07:33N 57°06' E 016°34'0 0.0
2014-Jul-17 06:12N 57°06' E 016°34'0 0.0
2014-Jul-17 05:30N 57°06' E 016°34'0 0.0
2014-Jul-17 04:33N 57°06' E 016°34'0 0.0
2014-Jul-17 03:33N 57°06' E 016°34'0 0.0
2014-Jul-17 02:27N 57°06' E 016°34'0 0.0
2014-Jul-17 01:33N 57°06' E 016°34'0 0.0
2014-Jul-17 00:33N 57°06' E 016°34'0 0.0
2014-Jul-16 23:09N 57°06' E 016°34'0 0.0
2014-Jul-16 21:24N 57°06' E 016°34'0 0.0
2014-Jul-16 20:03N 57°06' E 016°34'0 0.0
2014-Jul-16 19:21N 57°06' E 016°34'0 0.0
2014-Jul-16 18:30N 57°06' E 016°34'0 0.0
2014-Jul-16 17:27N 57°06' E 016°34'0 0.0
2014-Jul-16 16:33N 57°06' E 016°34'1 1.4
2014-Jul-16 15:33N 57°07' E 016°33'9 9.2
2014-Jul-16 14:33N 57°15' E 016°43'1211.8
2014-Jul-16 13:33N 57°24' E 016°56'1111.1
2014-Jul-16 12:33N 57°30' E 017°14'1111.0
2014-Jul-16 11:33N 57°20' E 017°24'1211.8
2014-Jul-16 10:33N 57°09' E 017°17'1111.5
2014-Jul-16 09:33N 56°57' E 017°16'6711.0
2014-Jul-16 03:31N 55°57' E 016°26'1211.8
2014-Jul-16 02:31N 55°52' E 016°06'1111.9
2014-Jul-16 01:33N 55°47' E 015°48'1212.0
2014-Jul-16 00:33N 55°42' E 015°28'1211.8
2014-Jul-15 23:31N 55°34' E 015°12'1212.1
2014-Jul-15 22:33N 55°27' E 014°55'1212.1
2014-Jul-15 21:33N 55°21' E 014°37'1211.8
2014-Jul-15 20:33N 55°12' E 014°24'1211.9
2014-Jul-15 19:31N 55°03' E 014°10'1111.7
2014-Jul-15 18:32N 54°58' E 013°52'1212.1
2014-Jul-15 17:33N 54°54' E 013°32'1212.0
2014-Jul-15 16:33N 54°51' E 013°12'1211.9
2014-Jul-15 15:33N 54°47' E 012°53'1111.5
2014-Jul-15 14:33N 54°42' E 012°35'1211.6
2014-Jul-15 13:33N 54°35' E 012°18'1211.7
2014-Jul-15 12:33N 54°24' E 012°11'1211.6
2014-Jul-15 11:33N 54°24' E 011°51'1211.7
2014-Jul-15 10:33N 54°29' E 011°33'1212.0
2014-Jul-15 09:33N 54°34' E 011°14'1211.6
2014-Jul-15 08:31N 54°35' E 010°53'50 8.2
2014-Jul-15 02:25N 54°13' E 009°35'8 8.3
2014-Jul-15 01:30N 54°10' E 009°24'8 7.8
2014-Jul-15 00:32N 54°03' E 009°18'5 5.2
2014-Jul-14 23:33N 53°58' E 009°15'6 5.6
2014-Jul-14 22:32N 53°54' E 009°09'2 1.8
2014-Jul-14 21:30N 53°53' E 009°06'7 7.2
2014-Jul-14 20:33N 53°51' E 008°55'8 8.1
2014-Jul-14 19:33N 53°53' E 008°42'8 8.1
2014-Jul-14 18:33N 53°58' E 008°31'10 9.8
2014-Jul-14 17:33N 53°60' E 008°15'10 9.9
2014-Jul-14 16:33N 53°58' E 007°58'6410.6
2014-Jul-14 10:30N 53°43' E 006°12'1213.1
2014-Jul-14 09:33N 53°39' E 005°52'1313.3
2014-Jul-14 08:33N 53°34' E 005°31'1313.5
2014-Jul-14 07:33N 53°30' E 005°10'1413.7
2014-Jul-14 06:34N 53°25' E 004°48'5513.7
2014-Jul-14 02:33N 52°38' E 004°01'1312.5
2014-Jul-14 01:31N 52°26' E 003°52'1111.9
2014-Jul-14 00:33N 52°15' E 003°53'1110.9
2014-Jul-13 23:33N 52°04' E 003°54'1010.3
2014-Jul-13 22:33N 51°58' E 004°07'5 1.6
2014-Jul-13 19:30N 51°55' E 004°13'0 0.0
2014-Jul-13 18:30N 51°55' E 004°13'0 0.0
2014-Jul-13 17:15N 51°55' E 004°13'0 0.0
2014-Jul-13 16:30N 51°55' E 004°13'0 0.0
2014-Jul-13 15:33N 51°55' E 004°13'0 0.0
2014-Jul-13 14:30N 51°55' E 004°13'0 0.0
2014-Jul-13 13:33N 51°55' E 004°13'0 0.0
2014-Jul-13 12:33N 51°55' E 004°13'0 0.0
2014-Jul-13 11:33N 51°55' E 004°13'0 0.0
2014-Jul-13 10:12N 51°55' E 004°13'0 0.0
2014-Jul-13 09:33N 51°55' E 004°13'  
Track history (hours):
 
Tides and Currents Weather Stations Pressure Air Temp Water Temp Dewpoint Dewpoint Depression Visibility Wind Speed Wind Dir Waves Ship Positions

Ekin-s

Last reported at 2014-Jul-23 08:31 UTC. Time now 2014-Jul-24 06:27 UTC.
Position N 59°18' E 004°19'.

Length 109 m; draft 5.8 m.

Type: Ship. MMSI: 271042836.

Date/timePositionNaut miles runAvg speedWind from/ knotsBaromVisibWave heightAir tempDewpointWater temp
2014-Jul-23 08:31N 59°18' E 004°19'1010.5
2014-Jul-23 07:32N 59°09' E 004°29'1312.8
2014-Jul-23 06:33N 59°06' E 004°53'1212.5
2014-Jul-23 05:33N 59°05' E 005°17'1211.9
2014-Jul-23 04:32N 59°17' E 005°20'3 0.2
2014-Jul-22 11:28N 59°20' E 005°18'9 9.5
2014-Jul-22 10:33N 59°12' E 005°21'1110.7
2014-Jul-22 09:33N 59°01' E 005°20'1111.3
2014-Jul-22 08:33N 58°50' E 005°14'1211.6
2014-Jul-22 07:33N 58°38' E 005°14'1312.5
2014-Jul-22 06:31N 58°26' E 005°20'1212.8
2014-Jul-22 05:33N 58°16' E 005°34'1312.9
2014-Jul-22 04:33N 58°07' E 005°52'14011.6
2014-Jul-21 16:33N 57°54' E 010°14'1211.9
2014-Jul-21 15:33N 57°55' E 010°36'1212.3
2014-Jul-21 14:33N 57°52' E 010°59'1111.1
2014-Jul-21 13:33N 57°44' E 011°11'1111.1
2014-Jul-21 12:33N 57°35' E 011°23'1211.6
2014-Jul-21 11:33N 57°24' E 011°31'1212.0
2014-Jul-21 10:33N 57°12' E 011°38'1312.1
2014-Jul-21 09:29N 57°00' E 011°46'1212.3
2014-Jul-21 08:33N 56°49' E 011°54'1211.5
2014-Jul-21 07:32N 56°38' E 011°55'1211.6
2014-Jul-21 06:31N 56°29' E 011°40'1311.6
2014-Jul-21 05:25N 56°19' E 011°27'1011.6
2014-Jul-21 04:32N 56°10' E 011°17'1212.1
2014-Jul-21 03:31N 56°00' E 011°04'1313.2
2014-Jul-21 02:33N 55°50' E 010°50'1413.4
2014-Jul-21 01:32N 55°36' E 010°48'1513.9
2014-Jul-21 00:27N 55°23' E 011°01'1213.2
2014-Jul-20 23:32N 55°11' E 011°05'1313.1
2014-Jul-20 22:31N 54°58' E 010°60'1212.2
2014-Jul-20 21:33N 54°47' E 010°52'1111.2
2014-Jul-20 20:33N 54°39' E 011°05'1313.4
2014-Jul-20 19:33N 54°32' E 011°25'1312.9
2014-Jul-20 18:33N 54°27' E 011°45'1312.8
2014-Jul-20 17:33N 54°26' E 012°07'1212.0
2014-Jul-20 16:33N 54°37' E 012°16'1212.3
2014-Jul-20 15:33N 54°44' E 012°34'1111.4
2014-Jul-20 14:33N 54°48' E 012°52'1212.3
2014-Jul-20 13:33N 54°48' E 013°14'1312.6
2014-Jul-20 12:33N 54°47' E 013°35'1212.3
2014-Jul-20 11:33N 54°43' E 013°55'1212.5
2014-Jul-20 10:33N 54°39' E 014°16'1212.1
2014-Jul-20 09:33N 54°39' E 014°37'1212.3
2014-Jul-20 08:33N 54°41' E 014°58'1212.3
2014-Jul-20 07:33N 54°42' E 015°19'1212.2
2014-Jul-20 06:33N 54°44' E 015°40'1212.2
2014-Jul-20 05:33N 54°46' E 016°01'1212.2
2014-Jul-20 04:33N 54°48' E 016°22'1212.1
2014-Jul-20 03:33N 54°50' E 016°42'1212.4
2014-Jul-20 02:33N 54°53' E 017°03'1212.4
2014-Jul-20 01:33N 54°55' E 017°24'1212.3
2014-Jul-20 00:33N 54°57' E 017°45'1212.3
2014-Jul-19 23:33N 54°58' E 018°07'1212.5
2014-Jul-19 22:33N 54°59' E 018°28'1212.5
2014-Jul-19 21:33N 54°57' E 018°50'1212.4
2014-Jul-19 20:33N 54°52' E 019°09'1212.2
2014-Jul-19 19:33N 54°47' E 019°29'1212.1
2014-Jul-19 18:33N 54°41' E 019°47'8 7.9
2014-Jul-19 17:33N 54°38' E 020°00'7 7.0
2014-Jul-19 16:33N 54°41' E 020°11'1 0.4
2014-Jul-19 15:07N 54°41' E 020°12'0 0.0
2014-Jul-19 14:28N 54°41' E 020°12'0 0.0
2014-Jul-19 13:28N 54°41' E 020°12'0 0.0
2014-Jul-19 10:16N 54°41' E 020°12'0 0.0
2014-Jul-19 09:31N 54°41' E 020°12'0 0.0
2014-Jul-19 08:28N 54°41' E 020°12'0 0.0
2014-Jul-19 07:31N 54°41' E 020°12'0 0.0
2014-Jul-18 14:25N 54°41' E 020°12'4 4.7
2014-Jul-18 13:32N 54°39' E 020°06'8 7.5
2014-Jul-18 12:31N 54°38' E 019°53'3 3.2
2014-Jul-18 11:31N 54°39' E 019°47'0 0.1
2014-Jul-18 10:31N 54°39' E 019°47'0 0.0
2014-Jul-18 09:31N 54°39' E 019°47'0 0.0
2014-Jul-18 08:31N 54°39' E 019°47'0 0.0
2014-Jul-18 07:25N 54°39' E 019°47'0 0.0
2014-Jul-18 06:31N 54°39' E 019°47'0 0.0
2014-Jul-18 03:32N 54°39' E 019°47'7 7.1
2014-Jul-18 02:33N 54°43' E 019°38'1212.4
2014-Jul-18 01:33N 54°52' E 019°22'1212.0
2014-Jul-18 00:33N 55°00' E 019°08'1211.7
2014-Jul-17 23:33N 55°09' E 018°54'1211.8
2014-Jul-17 22:33N 55°17' E 018°40'5512.4
2014-Jul-17 18:07N 56°08' E 018°03'1112.8
2014-Jul-17 17:17N 56°18' E 017°57'1212.7
2014-Jul-17 16:23N 56°30' E 017°51'1012.4
2014-Jul-17 15:33N 56°39' E 017°45'1512.1
2014-Jul-17 14:17N 56°54' E 017°37'912.1
2014-Jul-17 13:31N 57°03' E 017°34'1111.6
2014-Jul-17 12:33N 57°14' E 017°29'1312.9
2014-Jul-17 11:33N 57°26' E 017°22'1111.2
2014-Jul-17 10:33N 57°30' E 017°02'1313.1
2014-Jul-17 09:33N 57°19' E 016°50'1312.6
2014-Jul-17 08:33N 57°09' E 016°35'4 3.7
2014-Jul-17 07:33N 57°06' E 016°34'0 0.0
2014-Jul-17 06:12N 57°06' E 016°34'0 0.0
2014-Jul-17 05:30N 57°06' E 016°34'0 0.0
2014-Jul-17 04:33N 57°06' E 016°34'0 0.0
2014-Jul-17 03:33N 57°06' E 016°34'0 0.0
2014-Jul-17 02:27N 57°06' E 016°34'0 0.0
2014-Jul-17 01:33N 57°06' E 016°34'0 0.0
2014-Jul-17 00:33N 57°06' E 016°34'0 0.0
2014-Jul-16 23:09N 57°06' E 016°34'0 0.0
2014-Jul-16 21:24N 57°06' E 016°34'0 0.0
2014-Jul-16 20:03N 57°06' E 016°34'0 0.0
2014-Jul-16 19:21N 57°06' E 016°34'0 0.0
2014-Jul-16 18:30N 57°06' E 016°34'0 0.0
2014-Jul-16 17:27N 57°06' E 016°34'0 0.0
2014-Jul-16 16:33N 57°06' E 016°34'1 1.4
2014-Jul-16 15:33N 57°07' E 016°33'9 9.2
2014-Jul-16 14:33N 57°15' E 016°43'1211.8
2014-Jul-16 13:33N 57°24' E 016°56'1111.1
2014-Jul-16 12:33N 57°30' E 017°14'1111.0
2014-Jul-16 11:33N 57°20' E 017°24'1211.8
2014-Jul-16 10:33N 57°09' E 017°17'1111.5
2014-Jul-16 09:33N 56°57' E 017°16'6711.0
2014-Jul-16 03:31N 55°57' E 016°26'1211.8
2014-Jul-16 02:31N 55°52' E 016°06'1111.9
2014-Jul-16 01:33N 55°47' E 015°48'1212.0
2014-Jul-16 00:33N 55°42' E 015°28'1211.8
2014-Jul-15 23:31N 55°34' E 015°12'1212.1
2014-Jul-15 22:33N 55°27' E 014°55'1212.1
2014-Jul-15 21:33N 55°21' E 014°37'1211.8
2014-Jul-15 20:33N 55°12' E 014°24'1211.9
2014-Jul-15 19:31N 55°03' E 014°10'1111.7
2014-Jul-15 18:32N 54°58' E 013°52'1212.1
2014-Jul-15 17:33N 54°54' E 013°32'1212.0
2014-Jul-15 16:33N 54°51' E 013°12'1211.9
2014-Jul-15 15:33N 54°47' E 012°53'1111.5
2014-Jul-15 14:33N 54°42' E 012°35'1211.6
2014-Jul-15 13:33N 54°35' E 012°18'1211.7
2014-Jul-15 12:33N 54°24' E 012°11'1211.6
2014-Jul-15 11:33N 54°24' E 011°51'1211.7
2014-Jul-15 10:33N 54°29' E 011°33'1212.0
2014-Jul-15 09:33N 54°34' E 011°14'1211.6
2014-Jul-15 08:31N 54°35' E 010°53'50 8.2
2014-Jul-15 02:25N 54°13' E 009°35'8 8.3
2014-Jul-15 01:30N 54°10' E 009°24'8 7.8
2014-Jul-15 00:32N 54°03' E 009°18'5 5.2
2014-Jul-14 23:33N 53°58' E 009°15'6 5.6
2014-Jul-14 22:32N 53°54' E 009°09'2 1.8
2014-Jul-14 21:30N 53°53' E 009°06'7 7.2
2014-Jul-14 20:33N 53°51' E 008°55'8 8.1
2014-Jul-14 19:33N 53°53' E 008°42'8 8.1
2014-Jul-14 18:33N 53°58' E 008°31'10 9.8
2014-Jul-14 17:33N 53°60' E 008°15'10 9.9
2014-Jul-14 16:33N 53°58' E 007°58'6410.6
2014-Jul-14 10:30N 53°43' E 006°12'1213.1
2014-Jul-14 09:33N 53°39' E 005°52'1313.3
2014-Jul-14 08:33N 53°34' E 005°31'1313.5
2014-Jul-14 07:33N 53°30' E 005°10'1413.7
2014-Jul-14 06:34N 53°25' E 004°48'5513.7
2014-Jul-14 02:33N 52°38' E 004°01'1312.5
2014-Jul-14 01:31N 52°26' E 003°52'1111.9
2014-Jul-14 00:33N 52°15' E 003°53'1110.9
2014-Jul-13 23:33N 52°04' E 003°54'1010.3
2014-Jul-13 22:33N 51°58' E 004°07'5 1.6
2014-Jul-13 19:30N 51°55' E 004°13'0 0.0
2014-Jul-13 18:30N 51°55' E 004°13'0 0.0
2014-Jul-13 17:15N 51°55' E 004°13'0 0.0
2014-Jul-13 16:30N 51°55' E 004°13'0 0.0
2014-Jul-13 15:33N 51°55' E 004°13'0 0.0
2014-Jul-13 14:30N 51°55' E 004°13'0 0.0
2014-Jul-13 13:33N 51°55' E 004°13'0 0.0
2014-Jul-13 12:33N 51°55' E 004°13'0 0.0
2014-Jul-13 11:33N 51°55' E 004°13'0 0.0
2014-Jul-13 10:12N 51°55' E 004°13'0 0.0
2014-Jul-13 09:33N 51°55' E 004°13'  

Dump ship's entire track history